Time;durP1;ratioP1;P1;durP2;ratioP2;P2;SDS_P1;SDS_P2;PMS_P1;PMS_P2;Temp;Humidity;BMP_temperature;BMP_pressure;BME280_temperature;BME280_humidity;BME280_pressure;Samples;Min_cycle;Max_cycle;Signal;HPM_P1;HPM_P2
2024/04/16 00:01:34;;;;;;;2.00;0.60;;;;;;;;;;5524278;25;20004;-77
2024/04/16 00:04:20;;;;;;;2.17;0.93;;;;;;;;;;5524339;25;20067;-76
2024/04/16 00:07:05;;;;;;;1.55;1.17;;;;;;;;;;5472457;25;20030;-75
2024/04/16 00:09:50;;;;;;;2.42;0.90;;;;;;;;;;5487822;26;20001;-77
2024/04/16 00:12:35;;;;;;;3.38;0.80;;;;;;;;;;5451089;26;20038;-77
2024/04/16 00:15:21;;;;;;;1.85;0.90;;;;;;;;;;5451770;26;20001;-77
2024/04/16 00:18:06;;;;;;;2.97;0.85;;;;;;;;;;5477096;26;19995;-77
2024/04/16 00:20:51;;;;;;;2.45;0.65;;;;;;;;;;5452110;26;20006;-77
2024/04/16 00:23:37;;;;;;;4.50;1.45;;;;;;;;;;5504552;25;20015;-76
2024/04/16 00:26:22;;;;;;;0.73;0.68;;;;;;;;;;5484044;26;19998;-77
2024/04/16 00:29:07;;;;;;;3.78;0.90;;;;;;;;;;5487756;26;19997;-77
2024/04/16 00:31:52;;;;;;;3.53;0.90;;;;;;;;;;5512773;26;20004;-77
2024/04/16 00:34:38;;;;;;;5.20;0.70;;;;;;;;;;5513226;26;20009;-77
2024/04/16 00:37:23;;;;;;;3.22;0.95;;;;;;;;;;5513115;26;20025;-76
2024/04/16 00:40:08;;;;;;;1.60;1.02;;;;;;;;;;5486653;26;19993;-77
2024/04/16 00:42:54;;;;;;;1.77;0.88;;;;;;;;;;5512498;26;20061;-77
2024/04/16 00:45:40;;;;;;;1.17;0.82;;;;;;;;;;5513455;26;19993;-77
2024/04/16 00:48:26;;;;;;;2.10;0.80;;;;;;;;;;5513177;26;20005;-76
2024/04/16 00:51:12;;;;;;;2.88;0.88;;;;;;;;;;5492580;26;19994;-76
2024/04/16 00:53:57;;;;;;;2.80;0.63;;;;;;;;;;5490815;26;20003;-76
2024/04/16 00:56:42;;;;;;;3.47;1.25;;;;;;;;;;5486075;26;20030;-76
2024/04/16 00:59:29;;;;;;;3.13;0.90;;;;;;;;;;5450981;26;20038;-77
2024/04/16 01:02:14;;;;;;;4.20;1.10;;;;;;;;;;5496193;26;20002;-77
2024/04/16 01:05:01;;;;;;;3.60;1.15;;;;;;;;;;5490036;26;19997;-77
2024/04/16 01:07:46;;;;;;;2.08;0.80;;;;;;;;;;5489683;26;20001;-77
2024/04/16 01:10:36;;;;;;;4.70;0.98;;;;;;;;;;5473771;26;20006;-77
2024/04/16 01:13:22;;;;;;;1.65;1.02;;;;;;;;;;5453259;26;19997;-77
2024/04/16 01:16:07;;;;;;;3.20;1.00;;;;;;;;;;5453717;26;20002;-77
2024/04/16 01:18:52;;;;;;;1.83;0.90;;;;;;;;;;5478883;26;20005;-76
2024/04/16 01:21:37;;;;;;;4.82;0.77;;;;;;;;;;5489599;26;19993;-78
2024/04/16 01:24:23;;;;;;;3.40;1.05;;;;;;;;;;5489503;26;20002;-78
2024/04/16 01:27:08;;;;;;;2.35;1.25;;;;;;;;;;5489810;26;20031;-77
2024/04/16 01:29:53;;;;;;;2.75;1.13;;;;;;;;;;5489063;26;20009;-78
2024/04/16 01:32:38;;;;;;;3.50;1.10;;;;;;;;;;5492450;26;20005;-78
2024/04/16 01:35:23;;;;;;;2.65;1.63;;;;;;;;;;5515708;26;20020;-75
2024/04/16 01:38:09;;;;;;;1.27;0.82;;;;;;;;;;5504695;26;19993;-77
2024/04/16 01:40:54;;;;;;;9.02;1.85;;;;;;;;;;5488817;26;20093;-77
2024/04/16 01:43:39;;;;;;;2.33;0.95;;;;;;;;;;5501842;26;20352;-77
2024/04/16 01:46:24;;;;;;;2.28;0.95;;;;;;;;;;5506878;26;20456;-77
2024/04/16 01:49:10;;;;;;;2.70;0.88;;;;;;;;;;5489285;26;20012;-76
2024/04/16 01:51:55;;;;;;;6.45;1.65;;;;;;;;;;5489343;26;19998;-76
2024/04/16 01:54:40;;;;;;;5.05;1.10;;;;;;;;;;5477974;26;20081;-76
2024/04/16 01:57:25;;;;;;;3.50;1.30;;;;;;;;;;5482749;26;20336;-77
2024/04/16 02:00:11;;;;;;;2.38;1.02;;;;;;;;;;5460448;26;20496;-76
2024/04/16 02:02:59;;;;;;;6.22;1.38;;;;;;;;;;5467807;26;20008;-76
2024/04/16 02:05:45;;;;;;;4.45;1.50;;;;;;;;;;5519189;26;20025;-76
2024/04/16 02:08:30;;;;;;;2.55;1.20;;;;;;;;;;5509201;26;20049;-77
2024/04/16 02:11:15;;;;;;;3.28;0.90;;;;;;;;;;5492981;26;20389;-76
2024/04/16 02:14:03;;;;;;;4.07;1.23;;;;;;;;;;5501064;26;20005;-77
2024/04/16 02:16:48;;;;;;;2.03;0.98;;;;;;;;;;5518026;26;20002;-77
2024/04/16 02:19:34;;;;;;;2.28;0.82;;;;;;;;;;5481683;26;20019;-76
2024/04/16 02:22:19;;;;;;;2.97;1.23;;;;;;;;;;5491477;26;19998;-78
2024/04/16 02:25:10;;;;;;;1.60;1.13;;;;;;;;;;5487037;26;20009;-76
2024/04/16 02:27:55;;;;;;;5.53;1.27;;;;;;;;;;5456511;26;20013;-77
2024/04/16 02:30:41;;;;;;;3.03;1.50;;;;;;;;;;5484674;26;20010;-76
2024/04/16 02:33:26;;;;;;;3.15;1.13;;;;;;;;;;5511188;26;20476;-76
2024/04/16 02:36:12;;;;;;;4.15;1.08;;;;;;;;;;5508200;26;20398;-76
2024/04/16 02:38:57;;;;;;;1.98;1.10;;;;;;;;;;5479408;26;20009;-76
2024/04/16 02:41:43;;;;;;;5.00;1.90;;;;;;;;;;5497012;26;20008;-76
2024/04/16 02:44:28;;;;;;;4.25;1.35;;;;;;;;;;5481374;26;19993;-77
2024/04/16 02:47:13;;;;;;;3.20;1.15;;;;;;;;;;5518107;26;20053;-77
2024/04/16 02:49:59;;;;;;;3.10;0.90;;;;;;;;;;5518822;26;19998;-77
2024/04/16 02:52:44;;;;;;;4.70;1.10;;;;;;;;;;5513012;26;19998;-79
2024/04/16 02:55:29;;;;;;;7.78;1.65;;;;;;;;;;5494952;26;20041;-79
2024/04/16 02:58:14;;;;;;;3.92;1.23;;;;;;;;;;5492360;26;19998;-76
2024/04/16 03:01:04;;;;;;;4.22;1.45;;;;;;;;;;5492733;26;20009;-77
2024/04/16 03:03:53;;;;;;;5.85;2.58;;;;;;;;;;5472623;26;20095;-75
2024/04/16 03:06:38;;;;;;;2.28;1.30;;;;;;;;;;5515127;26;20002;-75
2024/04/16 03:09:23;;;;;;;2.80;1.15;;;;;;;;;;5487333;26;20012;-76
2024/04/16 03:12:09;;;;;;;7.93;1.27;;;;;;;;;;5453867;26;19997;-76
2024/04/16 03:15:42;;;;;;;6.70;1.63;;;;;;;;;;5514398;26;20016;-75
2024/04/16 03:18:17;;;;;;;5.82;1.02;;;;;;;;;;5482681;26;20451;-76
2024/04/16 03:21:03;;;;;;;4.40;1.75;;;;;;;;;;5513390;26;20448;-76
2024/04/16 03:23:48;;;;;;;4.05;0.95;;;;;;;;;;5489623;26;19994;-76
2024/04/16 03:26:33;;;;;;;5.60;1.45;;;;;;;;;;5489771;25;20008;-76
2024/04/16 03:29:18;;;;;;;4.55;1.20;;;;;;;;;;5493631;25;19996;-76
2024/04/16 03:32:04;;;;;;;2.28;0.90;;;;;;;;;;5514713;25;19993;-76
2024/04/16 03:34:49;;;;;;;3.17;1.05;;;;;;;;;;5488455;26;20496;-77
2024/04/16 03:37:34;;;;;;;2.88;1.35;;;;;;;;;;5508281;25;20004;-77
2024/04/16 03:40:20;;;;;;;4.80;2.03;;;;;;;;;;5524112;25;20007;-77
2024/04/16 03:43:05;;;;;;;2.25;0.80;;;;;;;;;;5495913;25;20033;-77
2024/04/16 03:45:51;;;;;;;3.10;1.08;;;;;;;;;;5504880;26;20035;-77
2024/04/16 03:48:36;;;;;;;4.63;1.58;;;;;;;;;;5488311;26;19994;-78
2024/04/16 03:51:21;;;;;;;4.47;2.05;;;;;;;;;;5475493;26;20006;-77
2024/04/16 03:54:06;;;;;;;7.10;2.13;;;;;;;;;;5451626;26;20021;-77
2024/04/16 03:56:51;;;;;;;2.15;1.42;;;;;;;;;;5472344;26;20693;-77
2024/04/16 03:59:37;;;;;;;3.33;1.17;;;;;;;;;;5489620;25;20053;-77
2024/04/16 04:02:23;;;;;;;3.70;1.75;;;;;;;;;;5498386;25;20005;-76
2024/04/16 04:05:09;;;;;;;4.45;1.00;;;;;;;;;;5524985;25;20001;-76
2024/04/16 04:07:54;;;;;;;3.00;1.00;;;;;;;;;;5495544;26;20006;-76
2024/04/16 04:10:40;;;;;;;4.80;1.95;;;;;;;;;;5476377;26;20357;-76
2024/04/16 04:13:26;;;;;;;6.38;1.90;;;;;;;;;;5516622;25;19997;-77
2024/04/16 04:16:12;;;;;;;4.07;1.52;;;;;;;;;;5524583;25;20875;-77
2024/04/16 04:18:58;;;;;;;4.40;1.50;;;;;;;;;;5498540;25;20015;-78
2024/04/16 04:21:44;;;;;;;5.22;1.55;;;;;;;;;;5503544;25;20008;-77
2024/04/16 04:24:29;;;;;;;5.07;1.50;;;;;;;;;;5523809;25;20012;-77
2024/04/16 04:27:14;;;;;;;3.85;1.27;;;;;;;;;;5490614;26;20404;-77
2024/04/16 04:29:59;;;;;;;2.78;1.15;;;;;;;;;;5487425;26;20008;-77
2024/04/16 04:32:51;;;;;;;6.45;1.58;;;;;;;;;;5487892;26;20066;-76
2024/04/16 04:35:36;;;;;;;3.40;1.58;;;;;;;;;;5487720;26;19998;-78
2024/04/16 04:38:22;;;;;;;3.83;1.90;;;;;;;;;;5508702;25;20072;-77
2024/04/16 04:41:08;;;;;;;4.13;1.20;;;;;;;;;;5527516;25;20007;-77
2024/04/16 04:43:54;;;;;;;3.28;1.30;;;;;;;;;;5527714;25;20044;-77
2024/04/16 04:46:39;;;;;;;2.80;1.30;;;;;;;;;;5522934;25;20067;-79
2024/04/16 04:49:24;;;;;;;2.17;1.13;;;;;;;;;;5449914;26;20017;-78
2024/04/16 04:52:09;;;;;;;3.78;1.48;;;;;;;;;;5452643;26;20463;-76
2024/04/16 04:54:55;;;;;;;5.05;1.50;;;;;;;;;;5452653;26;20002;-75
2024/04/16 04:57:41;;;;;;;2.92;1.20;;;;;;;;;;5467147;26;20133;-76
2024/04/16 05:00:27;;;;;;;3.13;1.60;;;;;;;;;;5448130;26;19998;-77
2024/04/16 05:03:12;;;;;;;2.58;1.17;;;;;;;;;;5451666;26;20421;-77
2024/04/16 05:05:57;;;;;;;3.95;1.38;;;;;;;;;;5480746;26;20534;-77
2024/04/16 05:08:42;;;;;;;5.70;2.08;;;;;;;;;;5481896;26;20106;-77
2024/04/16 05:11:27;;;;;;;4.53;1.52;;;;;;;;;;5487139;26;20009;-77
2024/04/16 05:14:13;;;;;;;4.78;1.50;;;;;;;;;;5483918;26;20012;-77
2024/04/16 05:16:58;;;;;;;5.05;1.40;;;;;;;;;;5495437;25;20019;-77
2024/04/16 05:19:43;;;;;;;4.75;2.00;;;;;;;;;;5501267;25;20001;-79
2024/04/16 05:22:29;;;;;;;4.70;1.77;;;;;;;;;;5486074;26;20001;-77
2024/04/16 05:25:14;;;;;;;4.85;2.05;;;;;;;;;;5479204;26;20013;-78
2024/04/16 05:27:59;;;;;;;6.32;1.67;;;;;;;;;;5479098;26;20461;-78
2024/04/16 05:30:45;;;;;;;5.78;1.83;;;;;;;;;;5479166;26;19998;-78
2024/04/16 05:33:30;;;;;;;4.45;1.65;;;;;;;;;;5478306;26;20002;-79
2024/04/16 05:36:15;;;;;;;5.18;1.55;;;;;;;;;;5458086;26;20025;-77
2024/04/16 05:39:00;;;;;;;4.45;1.60;;;;;;;;;;5482898;26;20086;-77
2024/04/16 05:41:45;;;;;;;4.10;2.20;;;;;;;;;;5438314;26;20011;-77
2024/04/16 05:44:31;;;;;;;4.50;1.60;;;;;;;;;;5442730;26;20030;-77
2024/04/16 05:47:16;;;;;;;3.38;1.77;;;;;;;;;;5442429;26;20338;-77
2024/04/16 05:50:01;;;;;;;2.30;1.60;;;;;;;;;;5442470;26;20010;-78
2024/04/16 05:52:46;;;;;;;5.30;2.00;;;;;;;;;;5477724;26;19998;-78
2024/04/16 05:55:32;;;;;;;1.50;1.00;;;;;;;;;;5479285;26;20002;-78
2024/04/16 05:58:17;;;;;;;8.35;1.70;;;;;;;;;;5479085;26;20035;-77
2024/04/16 06:01:06;;;;;;;6.22;1.83;;;;;;;;;;5478554;26;20656;-77
2024/04/16 06:03:51;;;;;;;5.07;1.42;;;;;;;;;;5478979;26;19994;-78
2024/04/16 06:06:36;;;;;;;5.47;2.03;;;;;;;;;;5479471;26;20441;-78
2024/04/16 06:09:21;;;;;;;9.55;2.42;;;;;;;;;;5478831;26;20046;-78
2024/04/16 06:12:07;;;;;;;10.48;2.30;;;;;;;;;;5478490;26;20002;-78
2024/04/16 06:14:55;;;;;;;8.20;2.85;;;;;;;;;;5479054;26;20239;-78
2024/04/16 06:17:40;;;;;;;8.35;2.00;;;;;;;;;;5478002;26;19994;-79
2024/04/16 06:20:25;;;;;;;7.28;2.17;;;;;;;;;;5479050;26;20717;-79
2024/04/16 06:23:10;;;;;;;8.25;1.80;;;;;;;;;;5479046;26;19994;-79
2024/04/16 06:25:56;;;;;;;10.05;2.90;;;;;;;;;;5478926;26;20066;-79
2024/04/16 06:28:41;;;;;;;9.20;2.28;;;;;;;;;;5479190;26;19990;-78
2024/04/16 06:31:27;;;;;;;12.38;1.90;;;;;;;;;;5478559;26;19994;-79
2024/04/16 06:34:12;;;;;;;5.05;1.60;;;;;;;;;;5479013;26;20035;-79
2024/04/16 06:36:58;;;;;;;7.75;2.50;;;;;;;;;;5478833;26;20013;-78
2024/04/16 06:39:43;;;;;;;7.95;1.75;;;;;;;;;;5452395;26;19994;-78
2024/04/16 06:42:29;;;;;;;8.55;1.98;;;;;;;;;;5478212;26;19993;-78
2024/04/16 06:45:15;;;;;;;6.93;2.50;;;;;;;;;;5478021;26;20067;-78
2024/04/16 06:48:01;;;;;;;3.70;1.35;;;;;;;;;;5475697;26;20462;-78
2024/04/16 06:50:46;;;;;;;6.10;1.75;;;;;;;;;;5477707;26;20024;-78
2024/04/16 06:53:31;;;;;;;8.68;2.10;;;;;;;;;;5478361;26;19998;-78
2024/04/16 06:56:17;;;;;;;8.23;2.08;;;;;;;;;;5465938;26;20091;-78
2024/04/16 06:59:02;;;;;;;3.67;1.98;;;;;;;;;;5449798;26;20073;-79
2024/04/16 07:01:47;;;;;;;7.88;2.47;;;;;;;;;;5441162;26;20007;-77
2024/04/16 07:04:32;;;;;;;6.38;1.70;;;;;;;;;;5442633;26;19999;-78
2024/04/16 07:07:18;;;;;;;6.50;2.15;;;;;;;;;;5467736;26;20442;-76
2024/04/16 07:10:03;;;;;;;10.38;1.77;;;;;;;;;;5441330;26;20015;-76
2024/04/16 07:12:48;;;;;;;7.53;1.95;;;;;;;;;;5441813;26;20068;-78
2024/04/16 07:15:34;;;;;;;8.20;2.33;;;;;;;;;;5467252;26;19999;-78
2024/04/16 07:18:19;;;;;;;6.38;1.90;;;;;;;;;;5467498;26;19991;-78
2024/04/16 07:21:04;;;;;;;6.25;1.58;;;;;;;;;;5466638;26;20326;-78
2024/04/16 07:23:49;;;;;;;7.90;2.08;;;;;;;;;;5441801;26;20067;-78
2024/04/16 07:26:35;;;;;;;6.60;1.65;;;;;;;;;;5472811;26;19995;-77
2024/04/16 07:29:20;;;;;;;5.78;1.55;;;;;;;;;;5441846;26;19998;-78
2024/04/16 07:32:06;;;;;;;8.38;1.80;;;;;;;;;;5441365;26;19995;-80
2024/04/16 07:34:51;;;;;;;8.32;2.20;;;;;;;;;;5441514;26;19994;-78
2024/04/16 07:37:36;;;;;;;3.75;1.33;;;;;;;;;;5436034;26;20072;-77
2024/04/16 07:40:21;;;;;;;5.10;1.85;;;;;;;;;;5441708;26;19991;-78
2024/04/16 07:43:07;;;;;;;7.75;1.67;;;;;;;;;;5444759;26;20017;-78
2024/04/16 07:45:52;;;;;;;4.68;1.70;;;;;;;;;;5477542;26;20013;-78
2024/04/16 07:48:37;;;;;;;5.45;1.58;;;;;;;;;;5477949;26;19998;-78
2024/04/16 07:51:22;;;;;;;5.75;1.52;;;;;;;;;;5477217;26;19993;-78
2024/04/16 07:54:10;;;;;;;7.32;1.85;;;;;;;;;;5476993;26;19994;-78
2024/04/16 07:56:56;;;;;;;4.88;1.98;;;;;;;;;;5455980;26;20338;-78
2024/04/16 07:59:41;;;;;;;5.05;1.55;;;;;;;;;;5441010;26;20002;-79
2024/04/16 08:02:26;;;;;;;5.60;1.50;;;;;;;;;;5440639;26;20011;-78
2024/04/16 08:05:11;;;;;;;3.83;1.42;;;;;;;;;;5441599;26;20003;-78
2024/04/16 08:07:57;;;;;;;7.00;1.42;;;;;;;;;;5417684;26;20007;-78
2024/04/16 08:10:42;;;;;;;5.82;1.42;;;;;;;;;;5420864;26;20648;-78
2024/04/16 08:13:32;;;;;;;4.95;1.63;;;;;;;;;;5415799;26;19995;-78
2024/04/16 08:16:17;;;;;;;5.28;1.30;;;;;;;;;;5440777;26;20469;-78
2024/04/16 08:19:02;;;;;;;7.38;1.55;;;;;;;;;;5440537;26;19995;-78
2024/04/16 08:21:50;;;;;;;3.92;1.67;;;;;;;;;;5440752;26;20038;-77
2024/04/16 08:24:35;;;;;;;6.70;1.85;;;;;;;;;;5445967;26;20014;-76
2024/04/16 08:27:21;;;;;;;3.65;1.23;;;;;;;;;;5468396;26;20006;-78
2024/04/16 08:30:07;;;;;;;4.55;1.65;;;;;;;;;;5450990;26;19999;-77
2024/04/16 08:32:52;;;;;;;4.60;1.63;;;;;;;;;;5467438;26;20334;-77
2024/04/16 08:35:37;;;;;;;4.60;1.20;;;;;;;;;;5488139;26;20445;-77
2024/04/16 08:38:23;;;;;;;4.82;1.83;;;;;;;;;;5488130;26;20016;-77
2024/04/16 08:41:08;;;;;;;7.30;3.10;;;;;;;;;;5487376;26;20047;-77
2024/04/16 08:43:53;;;;;;;3.88;1.20;;;;;;;;;;5487887;26;19997;-77
2024/04/16 08:46:39;;;;;;;8.85;1.77;;;;;;;;;;5488166;26;20016;-78
2024/04/16 08:49:29;;;;;;;3.25;1.00;;;;;;;;;;5487086;26;20440;-78
2024/04/16 08:52:15;;;;;;;18.67;4.47;;;;;;;;;;5488067;26;20452;-79
2024/04/16 08:55:01;;;;;;;5.68;1.10;;;;;;;;;;5487560;26;20002;-79
2024/04/16 08:57:48;;;;;;;3.50;1.50;;;;;;;;;;5452817;26;20229;-78
2024/04/16 09:00:34;;;;;;;4.63;1.70;;;;;;;;;;5451636;26;20597;-77
2024/04/16 09:03:20;;;;;;;3.70;1.33;;;;;;;;;;5445648;26;20009;-78
2024/04/16 09:06:06;;;;;;;4.78;1.70;;;;;;;;;;5450508;26;20002;-79
2024/04/16 09:08:52;;;;;;;5.63;1.40;;;;;;;;;;5450875;26;20374;-78
2024/04/16 09:11:38;;;;;;;3.20;1.13;;;;;;;;;;5450893;26;20008;-78
2024/04/16 09:14:23;;;;;;;6.13;1.40;;;;;;;;;;5450380;26;20935;-77
2024/04/16 09:17:14;;;;;;;7.32;1.55;;;;;;;;;;5450452;26;20447;-77
2024/04/16 09:20:00;;;;;;;4.40;1.27;;;;;;;;;;5451340;26;20013;-78
2024/04/16 09:22:46;;;;;;;5.60;1.25;;;;;;;;;;5450304;26;19995;-77
2024/04/16 09:25:31;;;;;;;3.67;1.23;;;;;;;;;;5454198;26;20002;-78
2024/04/16 09:28:17;;;;;;;2.58;1.13;;;;;;;;;;5453914;26;20481;-78
2024/04/16 09:31:03;;;;;;;3.72;1.10;;;;;;;;;;5453867;26;19998;-77
2024/04/16 09:33:48;;;;;;;3.83;1.30;;;;;;;;;;5454354;26;19998;-79
2024/04/16 09:36:34;;;;;;;5.25;1.55;;;;;;;;;;5472403;26;20143;-78
2024/04/16 09:39:20;;;;;;;4.90;1.65;;;;;;;;;;5491076;26;20003;-78
2024/04/16 09:42:06;;;;;;;7.13;1.70;;;;;;;;;;5489789;26;20336;-78
2024/04/16 09:44:51;;;;;;;7.20;1.50;;;;;;;;;;5491034;26;20069;-77
2024/04/16 09:47:38;;;;;;;5.30;1.20;;;;;;;;;;5490747;26;20460;-77
2024/04/16 09:50:24;;;;;;;2.65;1.17;;;;;;;;;;5490215;26;19994;-77
2024/04/16 09:53:10;;;;;;;2.30;0.95;;;;;;;;;;5490633;26;20069;-78
2024/04/16 09:55:56;;;;;;;3.88;1.27;;;;;;;;;;5489935;26;19997;-77
2024/04/16 09:58:49;;;;;;;5.05;1.17;;;;;;;;;;5490419;26;20455;-78
2024/04/16 10:01:35;;;;;;;5.22;1.35;;;;;;;;;;5490353;26;19994;-78
2024/04/16 10:04:20;;;;;;;5.75;1.50;;;;;;;;;;5490561;26;20037;-78
2024/04/16 10:07:05;;;;;;;5.40;1.40;;;;;;;;;;5489790;26;20436;-79
2024/04/16 10:09:51;;;;;;;4.55;1.30;;;;;;;;;;5490840;26;20025;-79
2024/04/16 10:12:40;;;;;;;4.95;1.35;;;;;;;;;;5490571;26;20012;-78
2024/04/16 10:15:25;;;;;;;5.85;2.05;;;;;;;;;;5464838;26;20001;-79
2024/04/16 10:18:11;;;;;;;4.50;1.17;;;;;;;;;;5490545;26;20012;-79
2024/04/16 10:20:58;;;;;;;3.78;0.98;;;;;;;;;;5489899;26;20002;-79
2024/04/16 10:23:45;;;;;;;2.58;0.88;;;;;;;;;;5489587;26;20471;-79
2024/04/16 10:26:34;;;;;;;2.35;1.20;;;;;;;;;;5472057;26;20002;-79
2024/04/16 10:29:25;;;;;;;5.05;1.42;;;;;;;;;;5453701;26;20002;-78
2024/04/16 10:32:11;;;;;;;3.35;1.10;;;;;;;;;;5461554;26;20006;-78
2024/04/16 10:34:59;;;;;;;2.10;1.13;;;;;;;;;;5489712;26;20008;-78
2024/04/16 10:37:47;;;;;;;2.83;1.15;;;;;;;;;;5489543;26;20065;-78
2024/04/16 10:40:33;;;;;;;3.90;1.30;;;;;;;;;;5489891;26;20016;-78
2024/04/16 10:43:20;;;;;;;5.75;1.20;;;;;;;;;;5490465;26;20001;-78
2024/04/16 10:46:06;;;;;;;3.15;1.20;;;;;;;;;;5489309;26;20008;-78
2024/04/16 10:48:52;;;;;;;3.30;1.10;;;;;;;;;;5489706;26;19997;-78
2024/04/16 10:51:37;;;;;;;3.67;1.00;;;;;;;;;;5489696;26;20005;-78
2024/04/16 10:54:22;;;;;;;4.38;1.05;;;;;;;;;;5489220;26;19997;-78
2024/04/16 10:57:08;;;;;;;12.90;1.13;;;;;;;;;;5463806;26;19998;-78
2024/04/16 10:59:54;;;;;;;3.13;1.33;;;;;;;;;;5453013;26;20002;-78
2024/04/16 11:02:39;;;;;;;2.67;1.00;;;;;;;;;;5478791;26;20314;-76
2024/04/16 11:05:24;;;;;;;1.73;1.00;;;;;;;;;;5452923;26;20252;-77
2024/04/16 11:08:10;;;;;;;2.03;0.98;;;;;;;;;;5452530;26;20024;-78
2024/04/16 11:10:58;;;;;;;2.22;0.90;;;;;;;;;;5453080;26;19998;-77
2024/04/16 11:13:43;;;;;;;2.75;0.95;;;;;;;;;;5452671;26;20006;-77
2024/04/16 11:16:30;;;;;;;1.98;0.90;;;;;;;;;;5452770;26;20002;-78
2024/04/16 11:19:16;;;;;;;2.53;0.90;;;;;;;;;;5427789;26;19998;-78
2024/04/16 11:22:02;;;;;;;2.92;0.90;;;;;;;;;;5475130;26;20002;-77
2024/04/16 11:24:47;;;;;;;1.33;0.90;;;;;;;;;;5488959;26;20021;-79
2024/04/16 11:27:33;;;;;;;2.42;0.80;;;;;;;;;;5478256;26;20046;-78
2024/04/16 11:30:18;;;;;;;2.38;0.70;;;;;;;;;;5452454;26;20036;-79
2024/04/16 11:33:03;;;;;;;4.70;1.00;;;;;;;;;;5477967;26;20562;-79
2024/04/16 11:35:48;;;;;;;1.38;0.90;;;;;;;;;;5452076;26;20169;-78
2024/04/16 11:38:34;;;;;;;3.05;1.00;;;;;;;;;;5452752;26;20006;-78
2024/04/16 11:41:20;;;;;;;1.48;0.80;;;;;;;;;;5452732;26;20002;-78
2024/04/16 11:44:05;;;;;;;4.38;2.10;;;;;;;;;;5452462;26;20070;-79
2024/04/16 11:46:50;;;;;;;1.70;0.70;;;;;;;;;;5451238;26;19998;-78
2024/04/16 11:49:37;;;;;;;3.78;1.05;;;;;;;;;;5452188;26;19998;-78
2024/04/16 11:52:22;;;;;;;4.22;1.08;;;;;;;;;;5452313;26;20017;-79
2024/04/16 11:55:07;;;;;;;3.40;1.20;;;;;;;;;;5451681;26;20009;-78
2024/04/16 11:57:52;;;;;;;1.42;0.73;;;;;;;;;;5477398;26;20073;-78
2024/04/16 12:00:38;;;;;;;1.70;0.70;;;;;;;;;;5452380;26;20009;-78
2024/04/16 12:03:24;;;;;;;2.47;0.65;;;;;;;;;;5452035;26;19998;-78
2024/04/16 12:06:09;;;;;;;3.10;0.93;;;;;;;;;;5452332;26;19998;-78
2024/04/16 12:08:54;;;;;;;1.45;0.90;;;;;;;;;;5452189;26;20074;-78
2024/04/16 12:11:41;;;;;;;3.85;0.90;;;;;;;;;;5451819;26;20013;-78
2024/04/16 12:14:26;;;;;;;3.38;0.90;;;;;;;;;;5451709;26;20062;-77
2024/04/16 12:17:11;;;;;;;3.05;0.80;;;;;;;;;;5457525;26;20002;-78
2024/04/16 12:19:57;;;;;;;2.53;0.85;;;;;;;;;;5488202;26;20001;-76
2024/04/16 12:22:42;;;;;;;3.75;0.70;;;;;;;;;;5488132;26;20562;-77
2024/04/16 12:25:27;;;;;;;2.53;0.90;;;;;;;;;;5487291;26;19998;-77
2024/04/16 12:28:15;;;;;;;3.38;0.82;;;;;;;;;;5451846;26;19994;-78
2024/04/16 12:31:00;;;;;;;2.20;0.85;;;;;;;;;;5452315;26;20002;-77
2024/04/16 12:33:46;;;;;;;1.48;0.80;;;;;;;;;;5451617;26;20002;-78
2024/04/16 12:36:31;;;;;;;1.50;0.93;;;;;;;;;;5451839;26;20002;-78
2024/04/16 12:39:16;;;;;;;2.53;1.10;;;;;;;;;;5451780;26;20010;-79
2024/04/16 12:42:11;;;;;;;2.13;0.95;;;;;;;;;;5451423;26;20453;-78
2024/04/16 12:44:56;;;;;;;2.03;0.90;;;;;;;;;;5451787;26;20010;-79
2024/04/16 12:47:41;;;;;;;2.72;0.73;;;;;;;;;;5451431;26;20041;-78
2024/04/16 12:50:27;;;;;;;2.30;0.90;;;;;;;;;;5451295;26;20005;-78
2024/04/16 12:53:12;;;;;;;2.00;1.00;;;;;;;;;;5451953;26;19998;-78
2024/04/16 12:55:58;;;;;;;4.97;1.23;;;;;;;;;;5459475;26;20459;-77
2024/04/16 12:58:42;;;;;;;1.17;0.80;;;;;;;;;;5502613;26;20000;-78
2024/04/16 13:01:26;;;;;;;1.42;0.90;;;;;;;;;;5483500;26;20009;-77
2024/04/16 13:04:10;;;;;;;1.50;0.70;;;;;;;;;;5482553;26;20016;-78
2024/04/16 13:06:56;;;;;;;1.85;0.70;;;;;;;;;;5486334;26;20504;-78
2024/04/16 13:09:42;;;;;;;1.67;0.82;;;;;;;;;;5491324;26;20456;-77
2024/04/16 13:12:27;;;;;;;4.35;1.15;;;;;;;;;;5490792;26;20001;-77
2024/04/16 13:15:12;;;;;;;3.78;0.80;;;;;;;;;;5490904;26;20013;-77
2024/04/16 13:17:58;;;;;;;2.20;0.82;;;;;;;;;;5490979;26;20091;-76
2024/04/16 13:20:43;;;;;;;3.60;1.08;;;;;;;;;;5490577;26;20045;-77
2024/04/16 13:23:29;;;;;;;3.25;1.17;;;;;;;;;;5491446;26;20001;-77
2024/04/16 13:26:16;;;;;;;3.80;1.23;;;;;;;;;;5490827;26;20012;-77
2024/04/16 13:29:02;;;;;;;2.63;1.00;;;;;;;;;;5490641;26;20015;-78
2024/04/16 13:31:47;;;;;;;1.85;0.80;;;;;;;;;;5490445;26;20004;-77
2024/04/16 13:34:33;;;;;;;2.47;1.17;;;;;;;;;;5490883;26;20012;-78
2024/04/16 13:37:18;;;;;;;1.73;0.85;;;;;;;;;;5490982;26;20006;-77
2024/04/16 13:40:03;;;;;;;2.70;0.90;;;;;;;;;;5487540;26;20011;-77
2024/04/16 13:42:49;;;;;;;2.25;1.02;;;;;;;;;;5487904;26;20332;-77
2024/04/16 13:45:34;;;;;;;2.88;1.00;;;;;;;;;;5489591;26;19997;-78
2024/04/16 13:48:19;;;;;;;5.05;0.80;;;;;;;;;;5490832;26;20348;-79
2024/04/16 13:51:05;;;;;;;1.15;0.73;;;;;;;;;;5490938;26;20009;-78
2024/04/16 13:53:50;;;;;;;1.40;0.80;;;;;;;;;;5490230;26;20074;-77
2024/04/16 13:56:35;;;;;;;3.90;1.05;;;;;;;;;;5478027;26;20005;-78
2024/04/16 13:59:20;;;;;;;1.92;0.75;;;;;;;;;;5454046;26;20013;-78
2024/04/16 14:02:06;;;;;;;1.60;0.80;;;;;;;;;;5453751;26;20006;-78
2024/04/16 14:04:51;;;;;;;1.92;0.82;;;;;;;;;;5453616;26;20009;-77
2024/04/16 14:07:36;;;;;;;3.63;1.00;;;;;;;;;;5478749;26;20013;-78
2024/04/16 14:10:22;;;;;;;1.83;0.77;;;;;;;;;;5468396;26;20009;-77
2024/04/16 14:13:08;;;;;;;1.17;0.60;;;;;;;;;;5490425;26;19993;-78
2024/04/16 14:15:54;;;;;;;2.05;0.80;;;;;;;;;;5489307;26;20029;-77
2024/04/16 14:18:47;;;;;;;1.02;0.85;;;;;;;;;;5488158;26;20016;-77
2024/04/16 14:21:32;;;;;;;4.05;0.90;;;;;;;;;;5490301;26;20037;-77
2024/04/16 14:24:21;;;;;;;4.03;1.05;;;;;;;;;;5489554;26;20514;-77
2024/04/16 14:27:06;;;;;;;1.38;0.80;;;;;;;;;;5490255;26;20455;-77
2024/04/16 14:29:51;;;;;;;2.25;1.08;;;;;;;;;;5490382;26;19990;-77
2024/04/16 14:32:36;;;;;;;1.88;0.70;;;;;;;;;;5489419;26;20008;-78
2024/04/16 14:35:21;;;;;;;2.28;0.85;;;;;;;;;;5490254;26;20444;-79
2024/04/16 14:38:07;;;;;;;1.55;0.80;;;;;;;;;;5489990;26;20328;-77
2024/04/16 14:40:52;;;;;;;1.27;0.93;;;;;;;;;;5489463;26;20001;-77
2024/04/16 14:43:37;;;;;;;1.67;0.80;;;;;;;;;;5489061;26;20005;-77
2024/04/16 14:46:22;;;;;;;1.77;0.90;;;;;;;;;;5464462;26;20042;-78
2024/04/16 14:49:11;;;;;;;3.47;1.30;;;;;;;;;;5478893;26;19998;-78
2024/04/16 14:51:56;;;;;;;2.13;0.80;;;;;;;;;;5471747;26;20020;-76
2024/04/16 14:54:41;;;;;;;1.60;0.70;;;;;;;;;;5452856;26;20444;-78
2024/04/16 14:57:26;;;;;;;1.80;0.70;;;;;;;;;;5497540;26;20009;-77
2024/04/16 15:00:15;;;;;;;2.00;1.00;;;;;;;;;;5453043;26;20024;-78
2024/04/16 15:03:00;;;;;;;1.77;0.73;;;;;;;;;;5463892;26;20004;-79
2024/04/16 15:05:45;;;;;;;1.55;0.93;;;;;;;;;;5489569;26;20001;-78
2024/04/16 15:08:30;;;;;;;1.38;0.90;;;;;;;;;;5453045;26;19998;-79
2024/04/16 15:11:16;;;;;;;3.05;1.10;;;;;;;;;;5449794;26;19990;-79
2024/04/16 15:14:02;;;;;;;5.55;1.35;;;;;;;;;;5453103;26;20022;-79
2024/04/16 15:16:47;;;;;;;3.38;1.10;;;;;;;;;;5453313;26;19994;-79
2024/04/16 15:19:33;;;;;;;2.08;0.90;;;;;;;;;;5452539;26;20002;-78
2024/04/16 15:22:18;;;;;;;2.65;0.93;;;;;;;;;;5448090;26;19994;-78
2024/04/16 15:25:04;;;;;;;1.23;0.77;;;;;;;;;;5452350;26;20337;-78
2024/04/16 15:27:49;;;;;;;4.18;1.20;;;;;;;;;;5487137;26;20001;-78
2024/04/16 15:30:34;;;;;;;2.97;1.10;;;;;;;;;;5458937;26;20002;-78
2024/04/16 15:33:20;;;;;;;2.42;0.88;;;;;;;;;;5482805;26;19997;-78
2024/04/16 15:36:05;;;;;;;2.25;0.90;;;;;;;;;;5511345;26;20085;-77
2024/04/16 15:38:50;;;;;;;2.75;1.10;;;;;;;;;;5511962;26;20276;-78
2024/04/16 15:41:35;;;;;;;2.55;1.02;;;;;;;;;;5487559;26;19994;-77
2024/04/16 15:44:20;;;;;;;2.47;0.90;;;;;;;;;;5508446;26;19997;-78
2024/04/16 15:47:06;;;;;;;3.15;0.80;;;;;;;;;;5512387;26;20090;-76
2024/04/16 15:49:52;;;;;;;0.95;0.80;;;;;;;;;;5514368;26;19998;-77
2024/04/16 15:52:38;;;;;;;1.67;1.13;;;;;;;;;;5514587;26;20062;-77
2024/04/16 15:55:24;;;;;;;1.95;1.10;;;;;;;;;;5514528;26;20451;-78
2024/04/16 15:58:10;;;;;;;4.57;1.13;;;;;;;;;;5452581;26;20006;-77
2024/04/16 16:00:58;;;;;;;3.10;1.35;;;;;;;;;;5451818;26;20013;-77
2024/04/16 16:03:44;;;;;;;1.75;0.80;;;;;;;;;;5469907;26;20014;-77
2024/04/16 16:06:30;;;;;;;4.93;1.23;;;;;;;;;;5452152;26;20414;-77
2024/04/16 16:09:15;;;;;;;1.88;1.13;;;;;;;;;;5451289;26;20013;-77
2024/04/16 16:12:01;;;;;;;0.75;0.70;;;;;;;;;;5452030;26;20466;-77
2024/04/16 16:14:46;;;;;;;1.27;0.82;;;;;;;;;;5427495;26;20070;-77
2024/04/16 16:17:31;;;;;;;0.93;0.80;;;;;;;;;;5451902;26;19998;-77
2024/04/16 16:20:16;;;;;;;0.95;0.80;;;;;;;;;;5452233;26;20025;-77
2024/04/16 16:23:03;;;;;;;3.35;0.80;;;;;;;;;;5451872;26;19998;-78
2024/04/16 16:25:48;;;;;;;1.58;0.93;;;;;;;;;;5455571;26;20002;-77
2024/04/16 16:28:37;;;;;;;1.45;0.80;;;;;;;;;;5487176;26;19997;-76
2024/04/16 16:31:22;;;;;;;2.33;0.70;;;;;;;;;;5488267;26;20001;-76
2024/04/16 16:34:08;;;;;;;1.30;0.80;;;;;;;;;;5496259;26;20077;-77